createdAt,value
2019-04-06T00:01:03.996Z,11.90
2019-04-06T00:03:38.621Z,11.90
2019-04-06T00:06:05.362Z,11.80
2019-04-06T00:08:31.896Z,11.90
2019-04-06T00:10:58.433Z,11.90
2019-04-06T00:13:24.967Z,11.90
2019-04-06T00:15:51.503Z,11.90
2019-04-06T00:18:18.040Z,11.90
2019-04-06T00:20:44.572Z,11.90
2019-04-06T00:23:11.114Z,11.90
2019-04-06T00:25:44.413Z,11.90
2019-04-06T00:28:06.334Z,11.90
2019-04-06T00:30:34.706Z,11.90
2019-04-06T00:33:05.851Z,11.90
2019-04-06T00:35:32.322Z,11.90
2019-04-06T00:37:58.919Z,11.90
2019-04-06T00:40:25.455Z,11.80
2019-04-06T00:42:51.991Z,11.80
2019-04-06T00:45:18.727Z,11.90
2019-04-06T00:47:45.311Z,11.90
2019-04-06T00:50:12.003Z,11.80
2019-04-06T00:52:38.845Z,11.80
2019-04-06T00:55:05.789Z,11.80
2019-04-06T00:57:32.326Z,11.80
2019-04-06T00:59:58.862Z,11.80
2019-04-06T01:02:25.400Z,11.80
2019-04-06T01:04:51.930Z,11.80
2019-04-06T01:07:18.494Z,11.80
2019-04-06T01:09:46.030Z,11.80
2019-04-06T01:12:12.467Z,11.80
2019-04-06T01:14:38.994Z,11.70
2019-04-06T01:17:05.527Z,11.70
2019-04-06T01:19:32.063Z,11.70
2019-04-06T01:21:59.416Z,11.70
2019-04-06T01:24:25.952Z,11.70
2019-04-06T01:26:52.591Z,11.70
2019-04-06T01:29:19.022Z,11.70
2019-04-06T01:31:45.966Z,11.70
2019-04-06T01:34:12.431Z,11.70
2019-04-06T01:36:38.935Z,11.70
2019-04-06T01:39:05.678Z,11.70
2019-04-06T01:41:32.210Z,11.70
2019-04-06T01:43:58.746Z,11.70
2019-04-06T01:46:25.911Z,11.70
2019-04-06T01:48:52.537Z,11.70
2019-04-06T01:51:19.174Z,11.70
2019-04-06T01:53:45.712Z,11.70
2019-04-06T01:56:18.322Z,11.70
2019-04-06T01:58:40.720Z,11.70
2019-04-06T02:01:24.461Z,11.70
2019-04-06T02:03:51.611Z,11.70
2019-04-06T02:06:18.251Z,11.60
2019-04-06T02:08:44.985Z,11.60
2019-04-06T02:11:11.519Z,11.60
2019-04-06T02:13:38.054Z,11.60
2019-04-06T02:16:04.999Z,11.60
2019-04-06T02:18:40.545Z,11.60
2019-04-06T02:21:07.081Z,11.70
2019-04-06T02:23:33.614Z,11.60
2019-04-06T02:26:00.150Z,11.60
2019-04-06T02:28:26.685Z,11.60
2019-04-06T02:31:01.312Z,11.60
2019-04-06T02:33:34.392Z,11.60
2019-04-06T02:36:19.816Z,11.60
2019-04-06T02:39:04.952Z,11.70
2019-04-06T02:41:36.509Z,11.60
2019-04-06T02:44:03.448Z,11.60
2019-04-06T02:46:31.211Z,11.60
2019-04-06T02:48:57.867Z,11.60
2019-04-06T02:51:24.389Z,11.70
2019-04-06T02:53:51.000Z,11.60
2019-04-06T02:56:17.668Z,11.70
2019-04-06T02:58:44.807Z,11.70
2019-04-06T03:01:11.649Z,11.70
2019-04-06T03:03:38.081Z,11.70
2019-04-06T03:06:04.730Z,11.70
2019-04-06T03:08:31.272Z,11.70
2019-04-06T03:10:58.104Z,11.70
2019-04-06T03:13:24.639Z,11.70
2019-04-06T03:15:51.168Z,11.70
2019-04-06T03:18:17.771Z,11.70
2019-04-06T03:20:44.240Z,11.70
2019-04-06T03:23:10.774Z,11.70
2019-04-06T03:25:37.904Z,11.70
2019-04-06T03:28:04.975Z,11.70
2019-04-06T03:30:31.508Z,11.70
2019-04-06T03:32:57.947Z,11.60
2019-04-06T03:35:24.536Z,11.70
2019-04-06T03:37:51.013Z,11.60
2019-04-06T03:40:17.547Z,11.60
2019-04-06T03:42:44.644Z,11.60
2019-04-06T03:45:11.644Z,11.60
2019-04-06T03:47:38.310Z,11.60
2019-04-06T03:50:05.959Z,11.60
2019-04-06T03:52:32.364Z,11.60
2019-04-06T03:54:59.105Z,11.60
2019-04-06T03:57:25.446Z,11.60
2019-04-06T03:59:51.745Z,11.60
2019-04-06T04:02:18.100Z,11.60
2019-04-06T04:04:44.428Z,11.60
2019-04-06T04:07:11.159Z,11.60
2019-04-06T04:09:38.107Z,11.60
2019-04-06T04:12:04.409Z,11.60
2019-04-06T04:14:30.774Z,11.60
2019-04-06T04:16:57.108Z,11.60
2019-04-06T04:19:23.361Z,11.60
2019-04-06T04:21:49.764Z,11.60
2019-04-06T04:24:16.233Z,11.70
2019-04-06T04:26:42.628Z,11.70
2019-04-06T04:29:09.112Z,11.60
2019-04-06T04:31:35.392Z,11.70
2019-04-06T04:34:01.826Z,11.60
2019-04-06T04:36:28.161Z,11.70
2019-04-06T04:38:54.701Z,11.70
2019-04-06T04:41:21.224Z,11.60
2019-04-06T04:43:47.864Z,11.60
2019-04-06T04:46:14.187Z,11.60
2019-04-06T04:48:40.525Z,11.70
2019-04-06T04:51:06.860Z,11.60
2019-04-06T04:53:33.183Z,11.60
2019-04-06T04:55:59.721Z,11.60
2019-04-06T04:58:26.052Z,11.70
2019-04-06T05:00:52.332Z,11.70
2019-04-06T05:03:19.314Z,11.70
2019-04-06T05:05:45.901Z,11.70
2019-04-06T05:08:12.186Z,11.70
2019-04-06T05:10:38.629Z,11.70
2019-04-06T05:13:05.362Z,11.70
2019-04-06T05:15:41.338Z,11.70
2019-04-06T05:18:07.990Z,11.70
2019-04-06T05:20:34.908Z,11.70
2019-04-06T05:23:01.230Z,11.70
2019-04-06T05:25:27.844Z,11.70
2019-04-06T05:27:54.301Z,11.70
2019-04-06T05:30:20.835Z,11.70
2019-04-06T05:32:47.268Z,11.70
2019-04-06T05:35:13.926Z,11.70
2019-04-06T05:37:40.248Z,11.70
2019-04-06T05:40:06.633Z,11.70
2019-04-06T05:42:32.941Z,11.70
2019-04-06T05:44:59.333Z,11.70
2019-04-06T05:47:25.589Z,11.70
2019-04-06T05:49:51.989Z,11.80
2019-04-06T05:52:18.744Z,11.80
2019-04-06T05:54:45.163Z,11.80
2019-04-06T05:57:11.919Z,11.80
2019-04-06T05:59:40.430Z,11.80
2019-04-06T06:02:07.819Z,11.80
2019-04-06T06:04:35.920Z,11.80
2019-04-06T06:07:02.538Z,11.80
2019-04-06T06:09:29.039Z,11.90
2019-04-06T06:11:55.999Z,11.90
2019-04-06T06:14:22.563Z,11.90
2019-04-06T06:16:48.988Z,11.90
2019-04-06T06:19:15.298Z,11.90
2019-04-06T06:21:41.657Z,11.90
2019-04-06T06:24:08.089Z,12.00
2019-04-06T06:26:34.693Z,12.00
2019-04-06T06:29:01.057Z,12.00
2019-04-06T06:31:27.387Z,12.00
2019-04-06T06:33:54.288Z,12.00
2019-04-06T06:36:20.555Z,12.10
2019-04-06T06:38:46.904Z,12.10
2019-04-06T06:41:13.223Z,12.10
2019-04-06T06:43:39.554Z,12.10
2019-04-06T06:46:05.870Z,12.10
2019-04-06T06:48:32.317Z,12.10
2019-04-06T06:50:58.647Z,12.20
2019-04-06T06:53:44.752Z,12.20
2019-04-06T06:56:11.068Z,12.40
2019-04-06T06:58:37.399Z,12.30
2019-04-06T07:01:03.834Z,12.30
2019-04-06T07:03:30.164Z,12.40
2019-04-06T07:05:56.492Z,12.40
2019-04-06T07:08:22.924Z,12.50
2019-04-06T07:10:49.353Z,12.50
2019-04-06T07:13:15.892Z,12.50
2019-04-06T07:15:43.392Z,12.60
2019-04-06T07:18:09.988Z,12.60
2019-04-06T07:20:36.523Z,12.70
2019-04-06T07:23:03.148Z,12.70
2019-04-06T07:25:30.169Z,12.70
2019-04-06T07:27:56.856Z,12.80
2019-04-06T07:30:23.379Z,12.80
2019-04-06T07:32:49.916Z,12.90
2019-04-06T07:35:16.329Z,12.90
2019-04-06T07:37:42.679Z,13.00
2019-04-06T07:40:11.149Z,13.00
2019-04-06T07:42:37.763Z,13.10
2019-04-06T07:45:06.922Z,13.10
2019-04-06T07:47:33.325Z,13.20
2019-04-06T07:49:59.738Z,13.30
2019-04-06T07:52:26.521Z,13.40
2019-04-06T07:54:53.150Z,13.40
2019-04-06T07:57:19.495Z,13.50
2019-04-06T07:59:45.797Z,13.60
2019-04-06T08:02:12.103Z,13.60
2019-04-06T08:04:38.561Z,13.70
2019-04-06T08:07:04.994Z,13.80
2019-04-06T08:09:31.452Z,13.90
2019-04-06T08:11:57.858Z,14.00
2019-04-06T08:14:24.290Z,14.10
2019-04-06T08:16:50.844Z,14.20
2019-04-06T08:19:17.089Z,14.30
2019-04-06T08:21:43.486Z,14.30
2019-04-06T08:24:10.021Z,14.40
2019-04-06T08:26:36.484Z,14.40
2019-04-06T08:29:03.104Z,14.50
2019-04-06T08:31:29.567Z,14.50
2019-04-06T08:33:56.022Z,14.60
2019-04-06T08:36:22.595Z,14.60
2019-04-06T08:38:49.090Z,14.60
2019-04-06T08:41:15.664Z,14.70
2019-04-06T08:43:42.098Z,14.80
2019-04-06T08:46:08.429Z,14.90
2019-04-06T08:48:34.759Z,14.90
2019-04-06T08:51:01.120Z,15.00
2019-04-06T08:53:27.845Z,15.00
2019-04-06T08:55:54.515Z,15.10
2019-04-06T08:58:20.800Z,15.10
2019-04-06T09:00:47.126Z,15.30
2019-04-06T09:03:13.624Z,15.40
2019-04-06T09:05:59.988Z,15.40
2019-04-06T09:08:26.618Z,15.40
2019-04-06T09:10:52.930Z,15.50
2019-04-06T09:13:19.257Z,15.60
2019-04-06T09:15:45.591Z,15.60
2019-04-06T09:18:11.927Z,15.70
2019-04-06T09:20:38.150Z,15.80
2019-04-06T09:23:04.694Z,15.90
2019-04-06T09:25:31.265Z,16.00
2019-04-06T09:27:57.821Z,16.10
2019-04-06T09:30:24.188Z,16.30
2019-04-06T09:32:50.478Z,16.40
2019-04-06T09:35:16.845Z,16.50
2019-04-06T09:37:43.176Z,16.60
2019-04-06T09:40:09.816Z,16.70
2019-04-06T09:42:36.369Z,16.90
2019-04-06T09:45:13.080Z,16.90
2019-04-06T09:47:51.528Z,17.00
2019-04-06T09:50:28.931Z,17.10
2019-04-06T09:53:02.838Z,17.10
2019-04-06T09:55:33.938Z,17.20
2019-04-06T09:58:14.583Z,17.20
2019-04-06T10:00:45.581Z,17.20
2019-04-06T10:03:30.796Z,17.20
2019-04-06T10:06:08.051Z,17.30
2019-04-06T10:08:37.545Z,17.30
2019-04-06T10:11:08.792Z,17.40
2019-04-06T10:13:36.944Z,17.40
2019-04-06T10:16:11.431Z,17.50
2019-04-06T10:18:55.006Z,17.50
2019-04-06T10:21:32.515Z,17.50
2019-04-06T10:24:00.809Z,17.50
2019-04-06T10:26:32.218Z,17.60
2019-04-06T10:29:09.632Z,17.60
2019-04-06T10:31:46.815Z,17.60
2019-04-06T10:34:27.012Z,17.60
2019-04-06T10:36:55.189Z,17.60
2019-04-06T10:39:32.532Z,17.60
2019-04-06T10:42:01.115Z,17.70
2019-04-06T10:44:29.289Z,17.80
2019-04-06T10:47:15.789Z,17.80
2019-04-06T10:49:49.628Z,17.90
2019-04-06T10:52:36.028Z,17.90
2019-04-06T10:55:06.305Z,17.90
2019-04-06T10:57:46.702Z,18.00
2019-04-06T11:00:30.246Z,17.90
2019-04-06T11:02:58.454Z,18.00
2019-04-06T11:05:43.507Z,18.00
2019-04-06T11:08:28.324Z,18.10
2019-04-06T11:10:56.617Z,18.10
2019-04-06T11:13:25.021Z,18.20
2019-04-06T11:16:10.354Z,18.30
2019-04-06T11:18:47.597Z,18.30
2019-04-06T11:21:34.339Z,18.40
2019-04-06T11:24:11.690Z,18.40
2019-04-06T11:26:40.015Z,18.50
2019-04-06T11:29:08.378Z,18.50
2019-04-06T11:31:45.805Z,18.60
2019-04-06T11:34:29.462Z,18.60
2019-04-06T11:36:57.795Z,18.60
2019-04-06T11:39:26.002Z,18.60
2019-04-06T11:41:55.045Z,18.60
2019-04-06T11:44:23.819Z,18.60
2019-04-06T11:47:07.283Z,18.60
2019-04-06T11:49:48.003Z,18.60
2019-04-06T11:52:33.332Z,18.70
2019-04-06T11:55:01.597Z,18.70
2019-04-06T11:57:42.065Z,18.70
2019-04-06T12:00:25.883Z,18.80
2019-04-06T12:02:55.465Z,18.70
2019-04-06T12:05:23.788Z,18.70
2019-04-06T12:07:57.732Z,18.70
2019-04-06T12:10:26.478Z,18.70
2019-04-06T12:13:03.771Z,18.70
2019-04-06T12:15:34.708Z,18.70
2019-04-06T12:18:05.637Z,18.70
2019-04-06T12:20:36.584Z,18.60
2019-04-06T12:23:14.091Z,18.70
2019-04-06T12:25:42.866Z,18.80
2019-04-06T12:28:11.208Z,18.80
2019-04-06T12:30:45.668Z,18.90
2019-04-06T12:33:32.020Z,19.00
2019-04-06T12:36:17.031Z,19.00
2019-04-06T12:38:56.991Z,19.00
2019-04-06T12:41:41.847Z,19.00
2019-04-06T12:44:15.962Z,19.10
2019-04-06T12:47:02.647Z,19.10
2019-04-06T12:49:49.294Z,19.10
2019-04-06T12:52:32.866Z,19.20
2019-04-06T12:55:06.922Z,19.30
2019-04-06T12:57:47.587Z,19.30
2019-04-06T13:00:25.141Z,19.30
2019-04-06T13:02:56.849Z,19.40
2019-04-06T13:05:28.190Z,19.40
2019-04-06T13:08:13.356Z,19.50
2019-04-06T13:10:50.995Z,19.60
2019-04-06T13:13:22.194Z,19.70
2019-04-06T13:15:50.368Z,19.70
2019-04-06T13:18:19.633Z,19.70
2019-04-06T13:20:51.143Z,19.70
2019-04-06T13:23:36.293Z,19.80
2019-04-06T13:26:07.607Z,19.80
2019-04-06T13:28:47.942Z,19.90
2019-04-06T13:31:25.677Z,19.90
2019-04-06T13:34:10.866Z,19.90
2019-04-06T13:36:51.428Z,19.90
2019-04-06T13:39:35.006Z,19.90
2019-04-06T13:42:15.247Z,19.90
2019-04-06T13:44:59.981Z,20.00
2019-04-06T13:47:34.093Z,20.10
2019-04-06T13:50:11.596Z,20.10
2019-04-06T13:52:40.271Z,20.20
2019-04-06T13:55:14.502Z,20.30
2019-04-06T13:57:46.222Z,20.40
2019-04-06T14:00:27.142Z,20.40
2019-04-06T14:02:55.397Z,20.40
2019-04-06T14:05:30.280Z,20.30
2019-04-06T14:08:15.321Z,20.30
2019-04-06T14:11:00.373Z,20.20
2019-04-06T14:13:38.192Z,20.20
2019-04-06T14:16:12.235Z,20.10
2019-04-06T14:18:43.415Z,20.10
2019-04-06T14:21:17.585Z,20.10
2019-04-06T14:23:46.285Z,20.10
2019-04-06T14:26:23.459Z,20.10
2019-04-06T14:28:58.396Z,20.10
2019-04-06T14:31:30.289Z,20.10
2019-04-06T14:34:12.760Z,20.10
2019-04-06T14:36:58.175Z,20.10
2019-04-06T14:39:26.429Z,20.10
2019-04-06T14:41:55.092Z,20.10
2019-04-06T14:44:23.261Z,20.10
2019-04-06T14:46:51.488Z,20.00
2019-04-06T14:49:31.134Z,20.00
2019-04-06T14:51:58.649Z,20.00
2019-04-06T14:54:32.783Z,20.00
2019-04-06T14:57:16.153Z,20.00
2019-04-06T14:59:44.713Z,20.00
2019-04-06T15:02:18.920Z,20.00
2019-04-06T15:04:50.085Z,19.70
2019-04-06T15:07:24.399Z,20.00
2019-04-06T15:09:52.600Z,19.90
2019-04-06T15:12:23.063Z,19.90
2019-04-06T15:14:53.587Z,19.90
2019-04-06T15:17:37.255Z,19.90
2019-04-06T15:20:06.944Z,19.90
2019-04-06T15:22:53.169Z,19.90
2019-04-06T15:25:28.920Z,19.90
2019-04-06T15:28:20.003Z,20.00
2019-04-06T15:30:51.167Z,20.00
2019-04-06T15:33:19.689Z,20.00
2019-04-06T15:35:54.478Z,20.00
2019-04-06T15:38:28.644Z,20.00
2019-04-06T15:40:59.939Z,20.10
2019-04-06T15:43:37.625Z,20.10
2019-04-06T15:46:17.925Z,20.10
2019-04-06T15:48:49.140Z,20.00
2019-04-06T15:51:35.729Z,20.00
2019-04-06T15:54:07.213Z,20.00
2019-04-06T15:56:54.349Z,19.90
2019-04-06T15:59:22.590Z,19.90
2019-04-06T16:02:02.335Z,19.90
2019-04-06T16:04:48.277Z,19.90
2019-04-06T16:07:35.151Z,19.90
2019-04-06T16:10:18.670Z,19.90
2019-04-06T16:13:04.932Z,19.90
2019-04-06T16:15:45.299Z,19.90
2019-04-06T16:18:30.427Z,19.80
2019-04-06T16:21:15.353Z,19.80
2019-04-06T16:24:01.723Z,19.80
2019-04-06T16:26:25.508Z,19.80
2019-04-06T16:28:53.821Z,19.70
2019-04-06T16:31:34.374Z,19.70
2019-04-06T16:34:11.970Z,19.60
2019-04-06T16:36:43.043Z,19.60
2019-04-06T16:39:14.050Z,19.50
2019-04-06T16:41:45.815Z,19.50
2019-04-06T16:44:32.926Z,19.40
2019-04-06T16:47:01.413Z,19.40
2019-04-06T16:49:48.013Z,19.40
2019-04-06T16:52:16.216Z,19.40
2019-04-06T16:54:56.558Z,19.40
2019-04-06T16:57:41.702Z,19.30
2019-04-06T17:00:27.196Z,19.30
2019-04-06T17:02:58.743Z,19.30
2019-04-06T17:05:27.132Z,19.30
2019-04-06T17:08:12.772Z,19.20
2019-04-06T17:10:56.973Z,19.20
2019-04-06T17:13:28.442Z,19.10
2019-04-06T17:15:59.559Z,19.10
2019-04-06T17:18:43.302Z,19.10
2019-04-06T17:21:24.058Z,19.00
2019-04-06T17:24:04.334Z,19.00
2019-04-06T17:26:38.754Z,18.90
2019-04-06T17:29:23.598Z,18.90
2019-04-06T17:32:04.226Z,18.80
2019-04-06T17:34:55.216Z,18.80
2019-04-06T17:37:25.416Z,18.70
2019-04-06T17:39:53.784Z,18.70
2019-04-06T17:42:37.897Z,18.70
2019-04-06T17:45:10.386Z,18.60
2019-04-06T17:47:41.515Z,18.60
2019-04-06T17:50:13.171Z,18.50
2019-04-06T17:52:41.436Z,18.50
2019-04-06T17:55:12.718Z,18.40
2019-04-06T17:57:47.033Z,18.40
2019-04-06T18:00:25.353Z,18.30
2019-04-06T18:03:02.837Z,18.20
2019-04-06T18:05:40.227Z,18.10
2019-04-06T18:08:23.761Z,18.10
2019-04-06T18:10:58.231Z,18.00
2019-04-06T18:13:32.624Z,17.90
2019-04-06T18:15:59.034Z,17.80
2019-04-06T18:18:25.612Z,17.70
2019-04-06T18:20:52.103Z,17.70
2019-04-06T18:23:18.756Z,17.60
2019-04-06T18:25:45.174Z,17.50
2019-04-06T18:28:11.656Z,17.40
2019-04-06T18:30:38.411Z,17.40
2019-04-06T18:33:07.196Z,17.30
2019-04-06T18:35:33.873Z,17.20
2019-04-06T18:38:11.228Z,17.20
2019-04-06T18:40:38.117Z,17.10
2019-04-06T18:43:04.542Z,17.10
2019-04-06T18:45:33.748Z,17.00
2019-04-06T18:48:00.019Z,16.90
2019-04-06T18:50:34.858Z,16.90
2019-04-06T18:52:54.576Z,16.80
2019-04-06T18:55:20.836Z,16.70
2019-04-06T18:57:48.010Z,16.70
2019-04-06T19:00:15.007Z,16.60
2019-04-06T19:02:41.452Z,16.60
2019-04-06T19:05:08.282Z,16.50
2019-04-06T19:07:34.856Z,16.50
2019-04-06T19:10:22.029Z,16.40
2019-04-06T19:12:48.508Z,16.40
2019-04-06T19:15:14.992Z,16.30
2019-04-06T19:17:41.528Z,16.30
2019-04-06T19:20:08.369Z,16.20
2019-04-06T19:22:35.091Z,16.20
2019-04-06T19:25:01.653Z,16.20
2019-04-06T19:27:29.743Z,16.10
2019-04-06T19:29:56.805Z,16.10
2019-04-06T19:32:23.302Z,16.00
2019-04-06T19:34:49.559Z,16.00
2019-04-06T19:37:16.034Z,16.00
2019-04-06T19:39:42.363Z,16.00
2019-04-06T19:42:09.260Z,15.90
2019-04-06T19:44:36.013Z,15.90
2019-04-06T19:47:02.839Z,15.90
2019-04-06T19:49:29.579Z,15.80
2019-04-06T19:51:57.158Z,15.80
2019-04-06T19:54:23.652Z,15.70
2019-04-06T19:56:49.934Z,15.70
2019-04-06T19:59:16.725Z,15.70
2019-04-06T20:01:43.056Z,15.70
2019-04-06T20:04:09.486Z,15.70
2019-04-06T20:06:36.103Z,15.70
2019-04-06T20:09:05.328Z,15.70
2019-04-06T20:11:32.152Z,15.70
2019-04-06T20:13:58.860Z,15.70
2019-04-06T20:16:25.295Z,15.70
2019-04-06T20:18:52.148Z,15.70
2019-04-06T20:21:19.001Z,15.70
2019-04-06T20:23:47.590Z,15.70
2019-04-06T20:26:13.881Z,15.70
2019-04-06T20:28:41.108Z,15.70
2019-04-06T20:31:07.432Z,15.70
2019-04-06T20:33:35.067Z,15.70
2019-04-06T20:36:02.473Z,15.70
2019-04-06T20:38:29.065Z,15.70
2019-04-06T20:40:55.497Z,15.70
2019-04-06T20:43:21.829Z,15.70
2019-04-06T20:45:48.065Z,15.70
2019-04-06T20:48:14.423Z,15.70
2019-04-06T20:50:41.025Z,15.70
2019-04-06T20:53:07.354Z,15.60
2019-04-06T20:55:33.684Z,15.60
2019-04-06T20:58:00.016Z,15.60
2019-04-06T21:00:26.775Z,15.60
2019-04-06T21:02:53.673Z,15.50
2019-04-06T21:05:20.132Z,15.50
2019-04-06T21:07:46.803Z,15.50
2019-04-06T21:10:13.794Z,15.40
2019-04-06T21:12:40.150Z,15.40
2019-04-06T21:15:16.957Z,15.40
2019-04-06T21:17:35.351Z,15.30
2019-04-06T21:20:03.926Z,15.20
2019-04-06T21:22:30.643Z,15.20
2019-04-06T21:24:57.248Z,15.20
2019-04-06T21:27:23.934Z,15.10
2019-04-06T21:29:50.740Z,15.10
2019-04-06T21:32:17.251Z,15.10
2019-04-06T21:34:44.791Z,15.00
2019-04-06T21:37:11.134Z,15.00
2019-04-06T21:39:37.460Z,14.90
2019-04-06T21:42:04.510Z,14.90
2019-04-06T21:44:31.091Z,14.80
2019-04-06T21:46:57.507Z,14.80
2019-04-06T21:49:24.155Z,14.80
2019-04-06T21:51:50.658Z,14.70
2019-04-06T21:54:17.594Z,14.70
2019-04-06T21:56:44.024Z,14.70
2019-04-06T21:59:10.993Z,14.60
2019-04-06T22:01:38.631Z,14.50
2019-04-06T22:04:05.394Z,14.60
2019-04-06T22:06:32.105Z,14.50
2019-04-06T22:08:58.444Z,14.50
2019-04-06T22:11:25.084Z,14.50
2019-04-06T22:13:52.190Z,14.50
2019-04-06T22:16:19.123Z,14.50
2019-04-06T22:18:45.503Z,14.40
2019-04-06T22:21:11.765Z,14.40
2019-04-06T22:23:42.321Z,14.40
2019-04-06T22:26:07.195Z,14.50
2019-04-06T22:28:34.933Z,14.40
2019-04-06T22:31:01.819Z,14.50
2019-04-06T22:33:28.634Z,14.50
2019-04-06T22:35:55.715Z,14.60
2019-04-06T22:38:22.730Z,14.50
2019-04-06T22:40:50.331Z,14.60
2019-04-06T22:43:17.332Z,14.60
2019-04-06T22:45:43.846Z,14.60
2019-04-06T22:48:10.447Z,14.50
2019-04-06T22:50:36.911Z,14.60
2019-04-06T22:53:03.801Z,14.50
2019-04-06T22:55:30.511Z,14.60
2019-04-06T22:57:57.030Z,14.50
2019-04-06T23:00:40.363Z,14.50
2019-04-06T23:03:27.354Z,14.50
2019-04-06T23:05:58.621Z,14.50
2019-04-06T23:08:25.596Z,14.50
2019-04-06T23:10:53.048Z,14.50
2019-04-06T23:13:20.313Z,14.50
2019-04-06T23:15:47.948Z,14.50
2019-04-06T23:18:15.062Z,14.40
2019-04-06T23:20:41.834Z,14.50
2019-04-06T23:23:08.497Z,14.50
2019-04-06T23:25:34.905Z,14.50
2019-04-06T23:28:01.374Z,14.60
2019-04-06T23:30:28.219Z,14.60
2019-04-06T23:32:54.699Z,14.70
2019-04-06T23:35:21.236Z,14.70
2019-04-06T23:37:48.249Z,14.80
2019-04-06T23:40:15.165Z,14.80
2019-04-06T23:42:41.989Z,14.80
2019-04-06T23:45:09.127Z,14.90
2019-04-06T23:47:35.555Z,14.90
2019-04-06T23:50:03.620Z,15.00
2019-04-06T23:52:29.952Z,15.00
2019-04-06T23:54:57.140Z,15.00
2019-04-06T23:57:23.822Z,15.10
2019-04-06T23:59:50.277Z,15.10
